Time;durP1;ratioP1;P1;durP2;ratioP2;P2;SDS_P1;SDS_P2;PMS_P1;PMS_P2;Temp;Humidity;BMP_temperature;BMP_pressure;BME280_temperature;BME280_humidity;BME280_pressure;Samples;Min_cycle;Max_cycle;Signal;HPM_P1;HPM_P2
2022/08/04 00:00:04;;;;;;;8.38;2.20;;;25.90;58.30;;;25.94;89.33;100122.78;5044874;28;20068;-77
2022/08/04 00:02:56;;;;;;;3.55;2.40;;;25.80;58.30;;;25.96;89.88;100120.78;5029280;28;20492;-77
2022/08/04 00:05:23;;;;;;;2.50;2.05;;;25.80;58.50;;;25.82;93.52;100124.78;5044976;28;20059;-78
2022/08/04 00:08:04;;;;;;;3.72;1.98;;;25.80;59.10;;;25.88;91.23;100120.69;5029177;28;20144;-78
2022/08/04 00:10:35;;;;;;;2.35;1.90;;;25.70;58.90;;;25.81;93.33;100122.22;5046538;28;20052;-78
2022/08/04 00:13:06;;;;;;;4.85;2.22;;;25.70;59.20;;;25.82;92.28;100122.09;5049220;28;20056;-78
2022/08/04 00:15:33;;;;;;;4.78;2.28;;;25.70;59.20;;;25.74;92.39;100127.31;5033134;28;20119;-77
2022/08/04 00:18:06;;;;;;;3.85;2.15;;;25.60;59.10;;;25.76;89.70;100120.81;5065583;28;20056;-76
2022/08/04 00:20:39;;;;;;;2.83;2.13;;;25.60;59.00;;;25.71;90.08;100123.09;5049118;28;20045;-76
2022/08/04 00:23:08;;;;;;;3.13;2.20;;;25.60;59.00;;;25.66;91.54;100119.13;5049230;28;20052;-77
2022/08/04 00:25:43;;;;;;;5.22;2.25;;;25.60;59.20;;;25.68;89.80;100126.06;5048776;28;20048;-76
2022/08/04 00:28:12;;;;;;;4.25;2.22;;;25.50;59.00;;;25.60;91.13;100118.69;5048630;28;20557;-76
2022/08/04 00:30:41;;;;;;;3.85;2.30;;;25.50;59.20;;;25.52;92.92;100120.38;5030690;28;20041;-76
2022/08/04 00:33:09;;;;;;;3.92;2.20;;;25.50;59.60;;;25.45;94.12;100122.75;5048443;28;20045;-78
2022/08/04 00:35:38;;;;;;;4.55;2.22;;;25.40;59.60;;;25.41;94.13;100122.19;5031786;28;20174;-76
2022/08/04 00:38:07;;;;;;;2.65;1.92;;;25.30;59.70;;;25.39;95.67;100123.31;5032108;28;20049;-76
2022/08/04 00:41:01;;;;;;;3.97;2.00;;;25.30;60.10;;;25.42;93.92;100128.41;5048487;28;20041;-76
2022/08/04 00:43:54;;;;;;;8.07;2.20;;;25.30;59.90;;;25.43;92.69;100124.72;5032623;28;20045;-76
2022/08/04 00:46:50;;;;;;;2.30;2.03;;;25.30;60.10;;;25.35;94.05;100126.28;5048907;28;20063;-76
2022/08/04 00:50:07;;;;;;;3.92;2.45;;;25.20;60.20;;;25.32;94.10;100131.09;5046938;28;20071;-76
2022/08/04 00:52:46;;;;;;;2.40;1.90;;;25.20;60.40;;;25.28;93.34;100132.34;5048300;28;20047;-77
2022/08/04 00:55:53;;;;;;;3.07;2.10;;;25.10;60.10;;;25.25;93.20;100128.09;5019528;28;20056;-77
2022/08/04 00:58:49;;;;;;;3.22;2.08;;;25.10;60.20;;;25.20;92.75;100139.28;5012001;28;20053;-76
2022/08/04 01:01:26;;;;;;;3.40;2.17;;;25.10;60.10;;;25.15;93.43;100135.31;5012545;28;20473;-76
2022/08/04 01:04:01;;;;;;;3.55;2.30;;;25.00;60.20;;;25.11;95.23;100132.03;5017203;28;20057;-77
2022/08/04 01:06:56;;;;;;;4.20;2.55;;;25.00;60.80;;;25.00;96.40;100134.81;5030046;28;20041;-77
2022/08/04 01:09:46;;;;;;;2.65;2.45;;;24.90;60.90;;;24.97;99.42;100137.78;5027979;28;20045;-76
2022/08/04 01:12:25;;;;;;;;;;;24.90;61.90;;;25.00;98.45;100137.53;5030232;28;20101;-77
2022/08/04 01:15:07;;;;;;;4.67;2.20;;;24.80;61.70;;;24.91;99.86;100131.13;5028333;28;20019;-76
2022/08/04 01:17:44;;;;;;;3.85;2.58;;;24.80;62.30;;;24.82;100.00;100137.28;5044493;28;20430;-78
2022/08/04 01:20:26;;;;;;;2.30;2.10;;;24.80;63.00;;;24.75;100.00;100139.69;5044098;28;20186;-78
2022/08/04 01:23:23;;;;;;;3.05;2.55;;;24.70;63.30;;;24.70;100.00;100134.69;5026658;28;20578;-78
2022/08/04 01:25:59;;;;;;;3.30;2.10;;;24.70;63.30;;;24.57;100.00;100131.38;5027361;28;20425;-78
2022/08/04 01:28:29;;;;;;;2.85;2.55;;;24.60;63.70;;;24.47;100.00;100132.16;5027202;28;20137;-78
2022/08/04 01:31:10;;;;;;;3.40;2.50;;;24.50;63.90;;;24.47;100.00;100134.84;5029574;28;20052;-78
2022/08/04 01:33:43;;;;;;;3.65;2.80;;;24.40;64.00;;;24.40;100.00;100130.13;5031793;28;20048;-76
2022/08/04 01:36:34;;;;;;;5.15;2.63;;;24.40;64.40;;;24.41;100.00;100132.69;5047791;28;20056;-76
2022/08/04 01:39:39;;;;;;;3.67;2.30;;;24.40;64.90;;;24.36;100.00;100127.72;5030321;28;20084;-76
2022/08/04 01:41:54;;;;;;;3.47;2.08;;;24.30;64.70;;;24.48;100.00;100124.97;5047504;28;20045;-76
2022/08/04 01:44:30;;;;;;;3.90;2.33;;;24.30;64.40;;;24.52;98.27;100125.56;5031221;28;20045;-76
2022/08/04 01:46:59;;;;;;;3.03;2.45;;;24.30;63.90;;;24.47;98.11;100123.25;5031222;28;20183;-76
2022/08/04 01:49:31;;;;;;;2.90;2.10;;;24.30;63.90;;;24.43;98.80;100117.28;5014040;28;20057;-76
2022/08/04 01:52:10;;;;;;;3.05;1.80;;;24.30;64.00;;;24.43;99.07;100117.28;5027280;28;20136;-76
2022/08/04 01:54:40;;;;;;;3.88;2.70;;;24.20;64.00;;;24.32;100.00;100117.34;5028241;28;20041;-77
2022/08/04 01:57:10;;;;;;;3.00;2.70;;;24.30;64.40;;;24.29;100.00;100110.44;5034709;28;20042;-76
2022/08/04 01:59:59;;;;;;;2.85;2.25;;;24.20;64.50;;;24.33;99.37;100113.69;5040672;28;20042;-76
2022/08/04 02:02:26;;;;;;;2.30;1.98;;;24.20;64.30;;;24.26;100.00;100115.22;5027483;28;20056;-76
2022/08/04 02:04:53;;;;;;;4.15;2.30;;;24.20;64.60;;;24.32;98.51;100115.53;5029541;28;20056;-78
2022/08/04 02:07:46;;;;;;;2.45;2.00;;;24.20;65.10;;;24.40;97.63;100105.94;5031871;28;20049;-78
2022/08/04 02:10:41;;;;;;;2.97;2.45;;;24.20;64.10;;;24.37;98.60;100109.75;5031552;28;20045;-78
2022/08/04 02:13:29;;;;;;;3.33;1.90;;;24.20;64.50;;;24.23;100.00;100105.56;5031019;28;20053;-78
2022/08/04 02:16:15;;;;;;;2.85;2.28;;;24.20;64.60;;;24.18;100.00;100105.94;5031021;28;20042;-78
2022/08/04 02:19:15;;;;;;;2.42;2.20;;;24.10;64.90;;;24.27;97.44;100108.84;5028549;28;20049;-77
2022/08/04 02:21:46;;;;;;;3.15;2.03;;;24.10;64.40;;;24.30;95.61;100103.19;5027340;28;20053;-78
2022/08/04 02:24:17;;;;;;;2.83;2.28;;;24.10;64.00;;;24.29;96.16;100107.75;5029378;28;20421;-78
2022/08/04 02:26:48;;;;;;;2.95;2.30;;;24.00;64.20;;;24.23;98.20;100107.41;5043373;28;20060;-78
2022/08/04 02:29:23;;;;;;;2.58;2.05;;;24.00;64.60;;;24.23;97.33;100107.41;5028560;28;20242;-78
2022/08/04 02:32:03;;;;;;;4.13;2.38;;;24.00;64.50;;;24.06;100.00;100107.03;5030929;28;20185;-78
2022/08/04 02:35:01;;;;;;;3.45;2.65;;;24.00;65.20;;;24.00;100.00;100107.50;5030624;28;20045;-78
2022/08/04 02:37:31;;;;;;;4.25;2.38;;;23.90;65.10;;;23.98;100.00;100104.97;5027055;28;20417;-78
2022/08/04 02:40:01;;;;;;;4.70;2.28;;;23.90;65.20;;;24.01;99.38;100104.69;5029157;28;20064;-78
2022/08/04 02:42:28;;;;;;;;;;;23.80;65.20;;;23.97;98.70;100105.94;5030577;28;20033;-78
2022/08/04 02:44:59;;;;;;;3.75;2.00;;;23.80;65.10;;;23.95;100.00;100110.56;5030789;28;19925;-78
2022/08/04 02:47:28;;;;;;;6.05;2.42;;;23.80;65.50;;;23.95;100.00;100107.88;5030509;28;20045;-78
2022/08/04 02:50:18;;;;;;;2.88;2.40;;;23.80;65.60;;;23.81;100.00;100111.75;5015391;28;20042;-78
2022/08/04 02:52:58;;;;;;;3.65;2.53;;;23.80;66.20;;;23.69;100.00;100112.78;5015054;28;20053;-78
2022/08/04 02:55:28;;;;;;;3.60;2.17;;;23.70;66.80;;;23.68;100.00;100103.88;5029436;28;20052;-80
2022/08/04 02:57:57;;;;;;;3.38;2.33;;;23.70;67.10;;;23.72;100.00;100105.31;5031958;28;20052;-79
2022/08/04 03:00:25;;;;;;;3.88;2.72;;;23.60;67.00;;;23.76;100.00;100112.13;5016839;28;20513;-79
2022/08/04 03:02:58;;;;;;;3.63;2.63;;;23.60;67.40;;;23.65;100.00;100106.84;5034898;28;20083;-78
2022/08/04 03:05:38;;;;;;;3.35;2.30;;;23.60;67.40;;;23.66;100.00;100111.22;5030968;28;20052;-78
2022/08/04 03:09:22;;;;;;;2.60;2.30;;;23.60;67.50;;;23.85;100.00;100106.97;5018876;28;20052;-79
2022/08/04 03:12:05;;;;;;;3.22;2.50;;;23.60;67.20;;;23.87;100.00;100108.53;5015845;28;20050;-79
2022/08/04 03:15:19;;;;;;;4.70;2.30;;;23.60;67.30;;;23.79;100.00;100111.88;5027968;28;20056;-79
2022/08/04 03:17:52;;;;;;;3.35;2.15;;;23.60;67.40;;;23.77;100.00;100108.47;5026218;28;20053;-79
2022/08/04 03:20:34;;;;;;;7.38;2.70;;;23.60;67.80;;;23.70;100.00;100107.28;5027138;28;20072;-79
2022/08/04 03:23:29;;;;;;;3.35;2.05;;;23.50;67.90;;;23.55;100.00;100103.19;5029338;28;20048;-79
2022/08/04 03:26:29;;;;;;;2.58;2.38;;;23.50;68.30;;;23.58;100.00;100116.38;5028310;28;20050;-78
2022/08/04 03:29:21;;;;;;;;;;;23.50;68.00;;;23.43;100.00;100113.13;5029466;28;20060;-78
2022/08/04 03:32:36;;;;;;;3.08;2.78;;;23.40;68.80;;;23.49;100.00;100115.28;5028162;28;19979;-78
2022/08/04 03:36:00;;;;;;;3.85;2.60;;;23.40;68.60;;;23.37;100.00;100112.63;5028453;28;20129;-78
2022/08/04 03:39:13;;;;;;;4.57;2.70;;;23.30;69.30;;;23.33;100.00;100115.69;5027212;28;20056;-78
2022/08/04 03:42:21;;;;;;;3.17;2.70;;;23.20;69.30;;;23.27;100.00;100119.75;5013282;28;20132;-79
2022/08/04 03:45:44;;;;;;;3.08;2.50;;;23.20;70.20;;;23.09;100.00;100125.59;5028903;28;20054;-79
2022/08/04 03:48:49;;;;;;;2.40;2.20;;;23.10;70.80;;;23.04;100.00;100122.44;5037453;28;20598;-78
2022/08/04 03:55:03;;;;;;;2.15;1.95;;;23.00;71.40;;;23.01;100.00;100113.78;5052168;28;20040;-78
2022/08/04 03:58:16;;;;;;;2.97;2.25;;;22.90;71.90;;;23.04;100.00;100118.91;5051328;28;20048;-78
2022/08/04 04:01:20;;;;;;;2.70;2.10;;;22.90;72.10;;;23.00;100.00;100118.28;5040846;28;20072;-78
2022/08/04 04:04:35;;;;;;;5.22;2.30;;;22.90;72.10;;;22.93;100.00;100111.72;5052994;28;20068;-78
2022/08/04 04:07:17;;;;;;;2.63;2.42;;;22.90;72.90;;;22.96;100.00;100122.22;5028427;28;20627;-78
2022/08/04 04:10:24;;;;;;;3.88;2.40;;;22.80;72.80;;;22.83;100.00;100125.00;5034521;28;20045;-78
2022/08/04 04:13:12;;;;;;;2.85;2.55;;;22.90;73.20;;;22.94;100.00;100119.63;5034167;28;20053;-78
2022/08/04 04:15:51;;;;;;;6.55;2.53;;;22.80;72.90;;;22.88;100.00;100125.50;5032444;28;20046;-79
2022/08/04 04:18:48;;;;;;;6.13;2.47;;;22.80;73.20;;;22.92;100.00;100131.47;5020748;28;20049;-76
2022/08/04 04:21:26;;;;;;;3.47;2.28;;;22.80;73.30;;;22.82;100.00;100136.72;5051574;28;20059;-78
2022/08/04 04:24:15;;;;;;;2.50;2.30;;;22.70;73.50;;;22.82;100.00;100131.34;5051422;28;20051;-77
2022/08/04 04:27:27;;;;;;;2.58;2.00;;;22.70;73.50;;;22.83;100.00;100134.91;5050234;28;20051;-76
2022/08/04 04:30:29;;;;;;;3.33;2.10;;;22.70;73.90;;;22.82;100.00;100131.34;5040352;28;20041;-76
2022/08/04 04:33:02;;;;;;;4.97;2.22;;;22.70;73.90;;;22.73;100.00;100138.28;5031157;28;20041;-77
2022/08/04 04:36:13;;;;;;;3.03;2.30;;;22.70;74.70;;;22.74;100.00;100129.28;5012921;28;20060;-76
2022/08/04 04:39:07;;;;;;;3.70;2.35;;;22.70;74.40;;;22.72;100.00;100133.06;5031106;28;20046;-77
2022/08/04 04:42:04;;;;;;;2.45;2.25;;;22.60;74.80;;;22.75;100.00;100141.69;5015768;28;20045;-77
2022/08/04 04:44:56;;;;;;;2.65;2.10;;;22.60;74.70;;;22.72;100.00;100143.78;5040058;28;20051;-76
2022/08/04 04:47:54;;;;;;;3.17;2.28;;;22.60;75.40;;;22.67;100.00;100142.31;5051196;28;20049;-77
2022/08/04 04:51:00;;;;;;;3.90;2.25;;;22.60;76.10;;;22.58;100.00;100142.19;5029996;28;20048;-76
2022/08/04 04:54:05;;;;;;;4.45;2.53;;;22.60;77.10;;;22.63;100.00;100150.72;5029175;28;20984;-76
2022/08/04 04:56:39;;;;;;;3.35;2.25;;;22.50;77.20;;;22.74;100.00;100158.78;5029399;28;20438;-77
2022/08/04 04:59:14;;;;;;;3.83;2.33;;;22.60;76.80;;;22.80;100.00;100155.63;5028513;28;20049;-77
2022/08/04 05:02:07;;;;;;;5.03;2.50;;;22.60;76.80;;;22.80;100.00;100152.06;5029162;28;20127;-76
2022/08/04 05:04:56;;;;;;;4.60;2.55;;;22.60;77.30;;;22.89;100.00;100153.16;5030073;28;20041;-77
2022/08/04 05:08:06;;;;;;;3.03;2.33;;;22.70;76.80;;;22.89;100.00;100150.47;5027987;28;20442;-77
2022/08/04 05:11:23;;;;;;;;;;;22.70;77.10;;;22.99;100.00;100147.91;5035451;28;20037;-76
2022/08/04 05:14:00;;;;;;;2.85;2.42;;;22.70;77.10;;;23.01;100.00;100148.66;5041016;28;19921;-76
2022/08/04 05:17:11;;;;;;;4.03;2.28;;;22.80;77.10;;;23.09;100.00;100156.94;5040709;28;20422;-76
2022/08/04 05:19:49;;;;;;;2.53;2.33;;;22.80;77.20;;;23.07;100.00;100158.91;5037535;28;20037;-75
2022/08/04 05:22:51;;;;;;;5.82;2.47;;;22.90;77.30;;;23.15;100.00;100164.50;5028594;28;20053;-75
2022/08/04 05:25:42;;;;;;;2.50;2.20;;;22.90;77.30;;;23.21;100.00;100169.38;5028292;28;20049;-75
2022/08/04 05:28:40;;;;;;;3.75;2.00;;;23.00;77.20;;;23.30;100.00;100172.31;5016210;28;20148;-75
2022/08/04 05:31:24;;;;;;;3.30;2.40;;;23.00;77.10;;;23.31;100.00;100168.66;5031551;28;20482;-75
2022/08/04 05:34:09;;;;;;;3.35;2.35;;;23.10;76.40;;;23.46;100.00;100167.41;5033136;28;20053;-75
2022/08/04 05:36:46;;;;;;;2.50;2.15;;;23.10;75.70;;;23.51;100.00;100165.22;5031817;28;20055;-75
2022/08/04 05:39:25;;;;;;;3.38;2.40;;;23.20;76.60;;;23.56;100.00;100166.66;5047320;28;20049;-76
2022/08/04 05:41:58;;;;;;;4.03;2.50;;;23.20;76.60;;;23.61;100.00;100169.81;5042428;28;20056;-75
2022/08/04 05:44:33;;;;;;;3.45;2.53;;;23.30;77.00;;;23.76;100.00;100171.22;5042179;28;20045;-75
2022/08/04 05:47:03;;;;;;;3.88;2.38;;;23.40;75.60;;;23.84;100.00;100172.44;5031609;28;20037;-76
2022/08/04 05:49:31;;;;;;;4.03;2.60;;;23.40;75.60;;;23.87;100.00;100169.47;5030831;28;20136;-76
2022/08/04 05:52:01;;;;;;;2.42;2.22;;;23.50;75.50;;;23.90;100.00;100174.59;5041145;28;20064;-76
2022/08/04 05:54:33;;;;;;;;;;;23.60;76.10;;;23.95;100.00;100169.69;5031672;28;20052;-76
2022/08/04 05:57:06;;;;;;;3.08;2.17;;;23.60;75.60;;;23.98;100.00;100176.63;5047479;28;19920;-76
2022/08/04 05:59:37;;;;;;;6.65;2.53;;;23.60;75.10;;;24.08;100.00;100177.59;5031255;28;20059;-76
2022/08/04 06:02:06;;;;;;;3.72;2.20;;;23.70;75.00;;;24.15;99.24;100172.56;5047920;28;20190;-76
2022/08/04 06:04:40;;;;;;;4.68;2.03;;;23.80;74.40;;;24.19;99.33;100176.69;5049585;28;20037;-77
2022/08/04 06:07:10;;;;;;;4.22;2.40;;;23.80;74.30;;;24.26;97.55;100177.88;5033446;28;20041;-84
2022/08/04 06:09:37;;;;;;;3.83;2.40;;;23.90;73.70;;;24.30;96.87;100176.66;5048919;28;20087;-81
2022/08/04 06:12:13;;;;;;;3.30;1.98;;;24.00;73.50;;;24.35;96.73;100174.41;5033070;28;20037;-81
2022/08/04 06:14:48;;;;;;;6.88;2.25;;;24.00;73.30;;;24.44;94.96;100177.31;5017119;28;20051;-81
2022/08/04 06:17:24;;;;;;;5.90;2.22;;;24.10;72.90;;;24.47;95.51;100174.34;5030053;28;20116;-79
2022/08/04 06:20:14;;;;;;;4.22;2.28;;;24.10;73.00;;;24.58;96.61;100173.41;5015692;28;20053;-78
2022/08/04 06:22:56;;;;;;;4.38;2.50;;;24.10;73.40;;;24.62;96.09;100172.16;5030776;28;20046;-79
2022/08/04 06:25:29;;;;;;;2.33;1.95;;;24.30;73.20;;;24.67;93.40;100169.94;5015727;28;20049;-80
2022/08/04 06:27:58;;;;;;;4.70;2.65;;;24.30;72.50;;;24.72;93.09;100175.75;4999517;28;20148;-79
2022/08/04 06:30:27;;;;;;;2.92;2.33;;;24.30;72.80;;;24.74;93.15;100172.91;5030301;28;20041;-79
2022/08/04 06:32:55;;;;;;;2.92;2.22;;;24.40;72.60;;;24.77;95.20;100178.09;5030893;28;20073;-79
2022/08/04 06:35:33;;;;;;;2.50;2.03;;;24.40;73.00;;;24.84;91.01;100173.84;5035153;28;20084;-78
2022/08/04 06:38:01;;;;;;;3.15;2.30;;;24.40;72.20;;;24.91;92.54;100180.41;5050989;28;20037;-79
2022/08/04 06:40:30;;;;;;;3.80;2.40;;;24.50;72.40;;;25.03;91.50;100183.00;5033296;28;20057;-79
2022/08/04 06:43:02;;;;;;;2.22;1.98;;;24.60;72.30;;;25.12;89.30;100184.88;5048584;28;20044;-79
2022/08/04 06:45:33;;;;;;;5.47;2.33;;;24.70;72.00;;;25.10;87.64;100176.09;5030105;28;20100;-78
2022/08/04 06:48:03;;;;;;;3.80;2.80;;;24.70;71.40;;;25.06;86.62;100172.81;5028574;28;20052;-77
2022/08/04 06:50:34;;;;;;;5.05;2.38;;;24.80;71.30;;;25.22;88.61;100181.38;5036352;28;20056;-78
2022/08/04 06:53:21;;;;;;;3.83;2.30;;;24.80;71.50;;;25.28;86.85;100178.13;5047840;28;20045;-78
2022/08/04 06:55:49;;;;;;;4.53;2.08;;;24.90;71.10;;;25.36;86.83;100189.03;5048662;28;20123;-78
2022/08/04 06:58:18;;;;;;;2.97;2.20;;;24.90;71.30;;;25.43;87.38;100190.22;5013905;28;20053;-78
2022/08/04 07:00:47;;;;;;;2.80;2.08;;;25.00;71.30;;;25.47;86.24;100183.56;5013894;28;20055;-77
2022/08/04 07:03:18;;;;;;;4.35;2.33;;;25.00;71.00;;;25.66;83.94;100178.38;5001588;28;20042;-78
2022/08/04 07:05:50;;;;;;;3.45;2.67;;;25.20;70.70;;;25.71;82.77;100184.19;5000310;28;20143;-78
2022/08/04 07:08:18;;;;;;;3.58;2.00;;;25.20;70.40;;;25.79;81.60;100186.19;5035546;28;20052;-78
2022/08/04 07:10:46;;;;;;;4.30;2.60;;;25.30;70.20;;;25.80;82.00;100179.78;5049663;28;20055;-78
2022/08/04 07:13:14;;;;;;;4.30;2.75;;;25.40;70.20;;;25.87;82.07;100180.94;5031247;28;20168;-79
2022/08/04 07:15:46;;;;;;;5.32;2.80;;;25.40;70.20;;;25.87;82.00;100175.56;5048093;28;20675;-78
2022/08/04 07:18:13;;;;;;;4.93;2.22;;;25.50;70.10;;;25.89;79.87;100178.97;5026126;28;20053;-79
2022/08/04 07:20:45;;;;;;;3.33;2.58;;;25.50;69.80;;;26.13;81.03;100177.66;5031620;28;20052;-78
2022/08/04 07:23:21;;;;;;;5.10;2.53;;;25.60;70.20;;;26.24;80.17;100182.09;5011965;28;20041;-78
2022/08/04 07:25:55;;;;;;;2.13;1.92;;;25.80;70.20;;;26.30;81.45;100179.69;5032428;28;20063;-78
2022/08/04 07:28:39;;;;;;;4.50;2.20;;;25.80;70.30;;;26.29;79.73;100180.66;5032973;28;20110;-79
2022/08/04 07:31:12;;;;;;;5.60;2.90;;;25.90;69.80;;;26.46;80.31;100181.78;5028219;28;20068;-80
2022/08/04 07:34:00;;;;;;;4.13;3.10;;;25.90;70.00;;;26.60;79.42;100187.72;5031603;28;20049;-80
2022/08/04 07:36:50;;;;;;;4.45;2.88;;;26.00;70.00;;;26.80;75.65;100183.13;5030562;28;20049;-80
2022/08/04 07:39:26;;;;;;;4.53;2.40;;;26.30;69.50;;;26.61;74.94;100176.75;4996188;28;20050;-80
2022/08/04 07:41:58;;;;;;;3.33;2.75;;;26.20;68.80;;;26.61;75.22;100187.53;5012329;28;20692;-81
2022/08/04 07:44:30;;;;;;;5.55;3.30;;;26.30;68.80;;;26.83;76.18;100184.66;5012143;28;20585;-80
2022/08/04 07:46:58;;;;;;;3.25;2.85;;;26.30;69.20;;;26.83;76.07;100179.25;5022412;28;20037;-80
2022/08/04 07:49:26;;;;;;;3.53;2.83;;;26.30;69.20;;;26.76;80.43;100179.84;5039598;28;20034;-79
2022/08/04 07:52:14;;;;;;;4.78;3.13;;;26.40;69.40;;;27.24;74.21;100184.34;5000650;28;20037;-80
2022/08/04 07:54:42;;;;;;;6.32;3.45;;;26.60;69.20;;;27.41;72.22;100188.09;5026804;28;20052;-79
2022/08/04 07:57:09;;;;;;;6.07;2.90;;;26.80;68.90;;;27.45;71.21;100182.25;5027306;28;20064;-80
2022/08/04 07:59:56;;;;;;;7.70;4.07;;;26.90;68.40;;;27.80;68.82;100179.78;5027023;28;20048;-80
2022/08/04 08:02:24;;;;;;;4.30;3.40;;;27.10;68.20;;;27.84;65.97;100191.97;5011076;28;20045;-80
2022/08/04 08:04:51;;;;;;;5.70;3.58;;;27.30;67.50;;;27.72;65.27;100172.44;5010819;28;20081;-79
2022/08/04 08:07:19;;;;;;;6.00;4.25;;;27.40;67.00;;;28.05;63.81;100177.28;5027355;28;20128;-78
2022/08/04 08:09:47;;;;;;;5.43;3.85;;;27.40;66.90;;;28.19;62.28;100175.06;5010975;28;20514;-78
2022/08/04 08:12:14;;;;;;;5.00;3.97;;;27.60;66.50;;;28.51;59.43;100179.00;5030174;28;20047;-78
2022/08/04 08:15:03;;;;;;;5.47;4.00;;;27.80;66.00;;;28.57;57.01;100181.09;5033453;28;20136;-78
2022/08/04 08:17:30;;;;;;;9.02;4.25;;;28.00;65.20;;;28.58;57.17;100172.78;5030187;28;20458;-77
2022/08/04 08:20:18;;;;;;;7.03;4.32;;;28.10;65.20;;;28.75;57.61;100172.06;5034412;28;20421;-77
2022/08/04 08:22:56;;;;;;;6.50;4.63;;;28.20;65.30;;;28.76;57.26;100176.47;5031518;28;20063;-76
2022/08/04 08:25:24;;;;;;;6.55;5.03;;;28.20;65.10;;;28.75;56.65;100178.31;5046202;28;20123;-75
2022/08/04 08:27:51;;;;;;;5.97;4.05;;;28.20;64.90;;;28.79;58.46;100181.53;5048166;28;20041;-76
2022/08/04 08:30:24;;;;;;;4.82;4.10;;;28.30;65.40;;;29.03;54.84;100172.72;5044713;28;20041;-77
2022/08/04 08:33:05;;;;;;;7.88;4.60;;;28.40;64.50;;;29.03;56.31;100183.56;5030269;28;20044;-77
2022/08/04 08:36:06;;;;;;;6.20;4.03;;;28.50;64.90;;;29.35;55.63;100173.84;5031539;28;20079;-77
2022/08/04 08:38:54;;;;;;;8.48;4.35;;;28.60;64.60;;;29.35;56.66;100170.28;5038826;28;20124;-77
2022/08/04 08:41:37;;;;;;;10.75;4.63;;;28.70;64.90;;;29.43;56.55;100182.06;5040549;28;20040;-77
2022/08/04 08:44:39;;;;;;;7.43;4.20;;;28.80;64.90;;;29.51;54.43;100173.09;5040760;28;20037;-77
2022/08/04 08:47:28;;;;;;;7.05;4.20;;;29.00;64.50;;;29.64;53.71;100183.44;5038391;28;20447;-75
2022/08/04 08:50:19;;;;;;;4.20;3.53;;;29.00;64.00;;;29.74;52.46;100182.44;5038839;28;20121;-75
2022/08/04 08:53:12;;;;;;;5.35;3.67;;;29.10;63.60;;;29.71;51.28;100167.38;5038594;28;20151;-75
2022/08/04 08:56:09;;;;;;;3.63;3.33;;;29.20;62.90;;;29.76;50.87;100185.84;5019382;28;20041;-75
2022/08/04 08:59:07;;;;;;;4.63;4.13;;;29.30;62.90;;;29.91;51.31;100170.59;5030431;28;20043;-74
2022/08/04 09:02:08;;;;;;;5.80;3.70;;;29.30;63.30;;;30.07;50.70;100177.91;5033394;28;20045;-75
